WABB/BIK METAR and TAF weather

Enter ICAO airport designator
Station Type Date Time Source
WABB METAR 2021/06/03 12:30 UTC NOAA

WABB 031230Z VRB02KT 9999 FEW018 26/24 Q1011 NOSIG


Station Type Date Time Source
WABB Decoded METAR 2021/06/03 12:30 UTC NOAA

Biak / Mokmer, Indonesia (WABB) 01-11S 136-07E 11M
Jun 03, 2021 - 08:30 AM EDT / 2021.06.03 1230 UTC
Wind: Variable at 2 MPH (2 KT):0
Visibility: greater than 7 mile(s):0
Sky conditions: mostly clear
Temperature: 78 F (26 C)
Dew Point: 75 F (24 C)
Relative Humidity: 88%
Pressure (altimeter): 29.85 in. Hg (1011 hPa)
ob: WABB 031230Z VRB02KT 9999 FEW018 26/24 Q1011 NOSIG
cycle: 12

Station Type Date Time Source
WABB TAF 2021/09/28 12:08 UTC NOAA

TAF WABB 281100Z 2812/2918 04005KT 9999 SCT018
TEMPO 2823/2902 5000 RA
BECMG 2903/2904 12005KT

Example: see airport list